WetterOnline ( https://www.wetteronline.de )

Wetter aktuell Großer Arber

Aktuelles Wetter: Großer Arber (1446m)

6-stündlich | Neueste Meldungen
Ortszeit Temperatur Wetter
Sa, 29.01. 7:00 -5.3° C Nebel
Sa, 29.01. 1:00 -5.7° C Nebel
Fr, 28.01. 19:00 -6.2° C Nebel
Fr, 28.01. 13:00 -6.0° C Nebel
Fr, 28.01. 7:00 -5.4° C Nebel
Fr, 28.01. 1:00 -4.3° C leichter Schneefall
Do, 27.01. 19:00 -6.0° C Schneegriesel
Do, 27.01. 13:00 0.1° C leicht bewölkt
Ortszeit Temperatur Wetter
Sa, 29.01. 9:00 -5.2° C Nebel
Sa, 29.01. 8:50 -5.2° C Nebel
Sa, 29.01. 8:40 -5.3° C Nebel
Sa, 29.01. 8:30 -5.3° C Nebel
Sa, 29.01. 8:20 -5.3° C Nebel
Sa, 29.01. 8:10 -5.4° C Nebel
Sa, 29.01. 8:00 -5.3° C Nebel
Sa, 29.01. 7:30 -5.3° C Nebel
Sa, 29.01. 7:00 -5.3° C Nebel
Sa, 29.01. 6:30 -5.5° C Nebel
Sa, 29.01. 6:00 -5.6° C Nebel
Ortszeit Relative Feuchte Sichtweite
Sa, 29.01. 7:00 94% <100 m
Sa, 29.01. 1:00 94% <100 m
Fr, 28.01. 19:00 94% 100 m
Fr, 28.01. 13:00 93% 100 m
Fr, 28.01. 7:00 96% <100 m
Fr, 28.01. 1:00 96% 100 m
Do, 27.01. 19:00 93% 100 m
Do, 27.01. 13:00 41% 8 km
Ortszeit Relative Feuchte Sichtweite
Sa, 29.01. 9:00 94% <100 m
Sa, 29.01. 8:50 94% -
Sa, 29.01. 8:40 94% -
Sa, 29.01. 8:30 94% <100 m
Sa, 29.01. 8:20 94% -
Sa, 29.01. 8:10 94% -
Sa, 29.01. 8:00 94% <100 m
Sa, 29.01. 7:30 94% 100 m
Sa, 29.01. 7:00 94% <100 m
Sa, 29.01. 6:30 94% <100 m
Sa, 29.01. 6:00 94% <100 m
Ortszeit Niederschlagsmenge Niederschlagsart
Sa, 29.01. 7:00 0.1 l/m2 in 12 Std. Schnee
Sa, 29.01. 1:00 0.0 l/m2 in 6 Std. -
Fr, 28.01. 19:00 2 l/m2 in 12 Std. Schnee
Fr, 28.01. 13:00 1 l/m2 in 6 Std. Schnee
Fr, 28.01. 7:00 1 l/m2 in 12 Std. Schnee
Fr, 28.01. 1:00 0.4 l/m2 in 6 Std. Schnee
Do, 27.01. 19:00 0.1 l/m2 in 12 Std. Schnee, Niederschlag
Do, 27.01. 13:00 0.1 l/m2 in 6 Std. Schnee, Niederschlag
Ortszeit Niederschlagsmenge Niederschlagsart
Sa, 29.01. 9:00 0.0 l/m2 in 1 Std. -
Sa, 29.01. 8:50 keine Meldung -
Sa, 29.01. 8:40 keine Meldung -
Sa, 29.01. 8:30 0.0 l/m2 in 1 Std. -
Sa, 29.01. 8:20 keine Meldung -
Sa, 29.01. 8:10 keine Meldung -
Sa, 29.01. 8:00 0.0 l/m2 in 1 Std. -
Sa, 29.01. 7:30 0.0 l/m2 in 1 Std. -
Sa, 29.01. 7:00 0.0 l/m2 in 1 Std. Schnee
Sa, 29.01. 6:30 0.0 l/m2 in 1 Std. -
Sa, 29.01. 6:00 0.1 l/m2 in 1 Std. Schnee
Ortszeit Stärke Spitze Richtung
km/h Bft. km/h Grad Sektor
Sa, 29.01. 7:00 50 6 72 250° W
Sa, 29.01. 1:00 36 5 61 250° W
Fr, 28.01. 19:00 40 6 76 310° NW
Fr, 28.01. 13:00 44 6 85 300° NW
Fr, 28.01. 7:00 48 6 91 290° W
Fr, 28.01. 1:00 56 7 81 270° W
Do, 27.01. 19:00 59 7 83 260° W
Do, 27.01. 13:00 59 7 78 270° W
Ortszeit Stärke Spitze Richtung
km/h Bft. km/h Grad Sektor
Sa, 29.01. 9:00 59 7 76 240° SW
Sa, 29.01. 8:50 59 7 - 240° SW
Sa, 29.01. 8:40 59 7 - 240° SW
Sa, 29.01. 8:30 54 7 72 240° SW
Sa, 29.01. 8:20 54 7 - 240° SW
Sa, 29.01. 8:10 54 7 - 240° SW
Sa, 29.01. 8:00 52 7 70 240° SW
Sa, 29.01. 7:30 54 7 68 240° SW
Sa, 29.01. 7:00 50 6 65 250° W
Sa, 29.01. 6:30 48 6 65 250° W
Sa, 29.01. 6:00 50 7 68 250° W
Ortszeit Untergrenze Bedeckung Gattung
total tief tief mittel hoch
Sa, 29.01. 7:00 <30 m 8/8 0/8 - - -
Sa, 29.01. 1:00 <30 m 8/8 0/8 - - -
Fr, 28.01. 19:00 <30 m 8/8 0/8 - - -
Fr, 28.01. 13:00 <30 m 8/8 0/8 - - -
Fr, 28.01. 7:00 <30 m 8/8 0/8 - - -
Fr, 28.01. 1:00 <30 m 8/8 0/8 - - -
Do, 27.01. 19:00 <30 m 8/8 0/8 - - -
Do, 27.01. 13:00 7800 m 5/8 0/8 - - -
Ortszeit Bedeckungsgrad in Achtel und Wolkenuntergrenze
Sa, 29.01. 9:00 8(<30m)
Sa, 29.01. 8:50 8(<30m)
Sa, 29.01. 8:40 8
Sa, 29.01. 8:30 8(<30m)
Sa, 29.01. 8:20 8(<30m)
Sa, 29.01. 8:10 8
Sa, 29.01. 8:00 8(<30m)
Sa, 29.01. 7:30 8(<30m)
Sa, 29.01. 7:00 8(<30m)
Sa, 29.01. 6:30 8(<30m)
Sa, 29.01. 6:00 8(<30m)
Ortszeit Stationsdruck (hPa) Tendenz (hPa in 3 Std.)
Sa, 29.01. 7:00 859 - 2,0
Sa, 29.01. 1:00 862 - 0,3
Fr, 28.01. 19:00 862 + 2,2
Fr, 28.01. 13:00 859 + 0,6
Fr, 28.01. 7:00 856 + 1,3
Fr, 28.01. 1:00 854 - 0,2
Do, 27.01. 19:00 854 - 0,8
Do, 27.01. 13:00 855 - 1,2
Ortszeit Stationsdruck (hPa) Tendenz (hPa in 3 Std.)
Sa, 29.01. 9:00 858 - 1,5
Sa, 29.01. 8:50 858 keine Meldung
Sa, 29.01. 8:40 858 keine Meldung
Sa, 29.01. 8:30 858 - 1,2
Sa, 29.01. 8:20 858 keine Meldung
Sa, 29.01. 8:10 858 keine Meldung
Sa, 29.01. 8:00 858 - 1,2
Sa, 29.01. 7:30 859 - 1,3
Sa, 29.01. 7:00 859 - 2,0
Sa, 29.01. 6:30 859 - 1,7
Sa, 29.01. 6:00 859 - 2,5
Ortszeit Schneehöhe (cm)
Sa, 29.01. 7:00 84
Sa, 29.01. 1:00 84
Fr, 28.01. 19:00 85
Fr, 28.01. 13:00 79
Fr, 28.01. 7:00 74
Fr, 28.01. 1:00 77
Do, 27.01. 19:00 72
Do, 27.01. 13:00 67
Ortszeit Schneehöhe (cm)
Sa, 29.01. 9:00 84
Sa, 29.01. 8:50 84
Sa, 29.01. 8:40 84
Sa, 29.01. 8:30 84
Sa, 29.01. 8:20 84
Sa, 29.01. 8:10 84
Sa, 29.01. 8:00 84
Sa, 29.01. 7:30 84
Sa, 29.01. 7:00 84
Sa, 29.01. 6:30 84
Sa, 29.01. 6:00 84
Link zu dieser Seite / Seite empfehlen

Das Wetter in ...